Time;durP1;ratioP1;P1;durP2;ratioP2;P2;SDS_P1;SDS_P2;PMS_P1;PMS_P2;Temp;Humidity;BMP_temperature;BMP_pressure;BME280_temperature;BME280_humidity;BME280_pressure;Samples;Min_cycle;Max_cycle;Signal;HPM_P1;HPM_P2
2023/03/10 00:01:23;;;;;;;3.90;3.50;;;;;;;14.06;45.30;98462.02;108152;1254;60385;-66
2023/03/10 00:03:52;;;;;;;3.90;2.80;;;;;;;13.82;45.79;98462.48;108340;1254;74850;-66
2023/03/10 00:06:24;;;;;;;3.50;2.90;;;;;;;13.64;46.07;98460.27;108282;1252;68731;-66
2023/03/10 00:08:53;;;;;;;3.20;2.70;;;;;;;13.89;45.41;98457.12;108279;1256;73631;-66
2023/03/10 00:11:21;;;;;;;4.80;3.10;;;;;;;13.53;46.04;98467.13;108234;1253;61980;-68
2023/03/10 00:13:50;;;;;;;4.70;3.50;;;;;;;13.20;46.72;98470.29;108264;1252;61008;-65
2023/03/10 00:16:21;;;;;;;3.20;2.90;;;;;;;13.02;47.12;98477.40;108178;1254;74686;-66
2023/03/10 00:18:51;;;;;;;3.60;2.90;;;;;;;12.95;47.25;98484.64;108228;1254;70534;-67
2023/03/10 00:21:25;;;;;;;4.50;2.50;;;;;;;13.21;46.73;98486.08;108190;1253;71789;-65
2023/03/10 00:23:55;;;;;;;5.10;3.40;;;;;;;13.31;46.48;98481.27;108187;1253;62210;-67
2023/03/10 00:26:26;;;;;;;3.20;2.90;;;;;;;13.44;46.17;98485.06;108224;1252;60996;-66
2023/03/10 00:28:54;;;;;;;4.70;3.10;;;;;;;13.39;46.16;98474.73;108052;1253;75021;-66
2023/03/10 00:31:25;;;;;;;4.30;3.00;;;;;;;13.51;45.90;98473.27;108105;1253;69116;-67
2023/03/10 00:33:54;;;;;;;4.40;3.00;;;;;;;13.43;45.93;98479.19;108082;1258;72790;-64
2023/03/10 00:36:26;;;;;;;3.70;3.30;;;;;;;13.23;46.14;98485.56;108132;1255;62355;-64
2023/03/10 00:38:55;;;;;;;4.20;3.20;;;;;;;13.26;46.12;98485.70;108110;1258;60358;-66
2023/03/10 00:41:31;;;;;;;3.20;2.90;;;;;;;13.34;45.76;98489.52;108060;1253;73803;-66
2023/03/10 00:44:00;;;;;;;4.10;2.90;;;;;;;13.16;46.01;98494.39;108006;1253;70375;-65
2023/03/10 00:46:31;;;;;;;4.50;3.10;;;;;;;12.58;47.26;98504.70;108004;1253;73832;-65
2023/03/10 00:49:01;;;;;;;3.10;2.80;;;;;;;12.95;46.56;98504.52;108010;1253;59595;-68
2023/03/10 00:51:29;;;;;;;4.90;3.50;;;;;;;12.88;46.63;98515.80;108068;1253;60463;-65
2023/03/10 00:54:02;;;;;;;3.10;2.70;;;;;;;12.91;46.60;98526.32;108050;1254;72547;-66
2023/03/10 00:56:30;;;;;;;3.90;3.10;;;;;;;12.88;46.49;98542.19;108014;1253;71451;-65
2023/03/10 00:58:58;;;;;;;3.40;2.70;;;;;;;12.97;46.27;98551.73;108013;1253;73540;-64
2023/03/10 01:01:29;;;;;;;4.00;3.00;;;;;;;12.86;46.37;98568.91;108080;1253;62062;-67
2023/03/10 01:03:58;;;;;;;;;;;;;;;13.00;46.11;98582.20;108109;1254;60315;-67
2023/03/10 01:06:27;;;;;;;4.70;3.10;;;;;;;12.98;46.17;98588.52;108224;1254;74757;-66
2023/03/10 01:08:56;;;;;;;4.40;3.20;;;;;;;12.98;46.11;98596.40;108112;1254;71025;-67
2023/03/10 01:11:40;;;;;;;3.10;2.80;;;;;;;13.26;45.63;98599.07;108182;1256;73692;-66
2023/03/10 01:14:11;;;;;;;3.10;2.80;;;;;;;13.21;45.47;98609.73;108130;1254;61227;-67
2023/03/10 01:16:39;;;;;;;4.00;3.10;;;;;;;13.16;45.61;98610.47;108118;1254;61512;-67
2023/03/10 01:19:07;;;;;;;3.20;2.80;;;;;;;13.13;45.72;98612.27;108147;1254;76318;-66
2023/03/10 01:21:36;;;;;;;3.30;2.90;;;;;;;13.27;45.58;98620.12;108306;1254;70031;-64
2023/03/10 01:24:04;;;;;;;3.90;2.40;;;;;;;13.16;45.45;98627.73;108188;1253;71257;-67
2023/03/10 01:26:34;;;;;;;5.20;3.20;;;;;;;12.95;45.63;98634.54;108117;1254;62332;-65
2023/03/10 01:29:04;;;;;;;4.20;3.00;;;;;;;13.04;45.43;98642.91;108014;1259;60355;-65
2023/03/10 01:31:32;;;;;;;5.20;3.10;;;;;;;13.10;45.38;98647.40;108028;1254;72750;-65
2023/03/10 01:34:01;;;;;;;4.40;3.20;;;;;;;13.32;44.95;98653.58;108089;1254;69665;-65
2023/03/10 01:36:29;;;;;;;3.60;3.20;;;;;;;13.43;44.62;98656.52;108091;1258;71856;-65
2023/03/10 01:38:59;;;;;;;3.70;3.10;;;;;;;13.48;44.51;98661.27;108084;1254;62477;-66
2023/03/10 01:41:27;;;;;;;4.20;3.00;;;;;;;13.53;44.22;98661.20;108057;1254;60582;-66
2023/03/10 01:43:55;;;;;;;4.60;2.80;;;;;;;13.26;44.60;98661.82;108003;1253;74215;-65
2023/03/10 01:46:33;;;;;;;5.40;3.10;;;;;;;13.20;44.80;98667.80;108087;1253;70520;-67
2023/03/10 01:49:25;;;;;;;4.10;3.00;;;;;;;13.07;44.93;98674.02;108081;1253;73735;-65
2023/03/10 01:52:17;;;;;;;3.50;2.70;;;;;;;13.22;44.55;98677.52;108110;1253;61775;-65
2023/03/10 01:54:58;;;;;;;3.30;2.50;;;;;;;13.27;44.24;98680.34;108122;1253;61582;-66
2023/03/10 01:57:29;;;;;;;4.60;2.40;;;;;;;13.01;44.60;98689.57;107988;1254;73143;-66
2023/03/10 01:59:58;;;;;;;3.10;2.70;;;;;;;12.88;44.77;98695.92;108124;1254;70432;-66
2023/03/10 02:02:27;;;;;;;5.00;2.60;;;;;;;12.87;44.79;98700.77;107965;1254;73799;-67
2023/03/10 02:04:56;;;;;;;3.40;2.70;;;;;;;13.04;44.38;98711.36;108000;1253;60350;-66
2023/03/10 02:07:30;;;;;;;3.10;2.40;;;;;;;13.01;44.50;98720.75;108059;1254;60587;-65
2023/03/10 02:09:59;;;;;;;4.30;2.70;;;;;;;12.92;44.68;98721.41;107979;1254;72893;-65
2023/03/10 02:12:28;;;;;;;3.10;2.50;;;;;;;13.25;44.32;98727.42;108110;1253;70942;-65
2023/03/10 02:15:00;;;;;;;3.00;2.60;;;;;;;13.17;44.26;98728.80;108070;1258;73881;-66
2023/03/10 02:17:29;;;;;;;4.30;2.80;;;;;;;13.13;44.25;98736.17;108095;1253;62004;-65
2023/03/10 02:20:20;;;;;;;5.60;2.90;;;;;;;13.32;43.83;98733.46;108043;1253;60238;-65
2023/03/10 02:22:48;;;;;;;;;;;;;;;13.23;43.88;98742.52;107943;1254;74869;-67
2023/03/10 02:25:28;;;;;;;4.20;3.10;;;;;;;13.16;43.89;98749.87;108011;1253;71163;-65
2023/03/10 02:27:57;;;;;;;5.50;2.70;;;;;;;13.40;43.41;98758.08;108033;1254;73400;-64
2023/03/10 02:30:35;;;;;;;3.90;2.80;;;;;;;13.42;43.30;98772.74;107997;1253;62037;-66
2023/03/10 02:33:10;;;;;;;3.50;2.70;;;;;;;13.05;43.93;98785.49;108075;1254;60450;-66
2023/03/10 02:35:38;;;;;;;9.20;3.00;;;;;;;13.12;43.82;98789.79;108036;1253;75048;-67
2023/03/10 02:38:10;;;;;;;6.70;3.10;;;;;;;13.21;43.65;98796.59;108045;1254;71418;-66
2023/03/10 02:40:49;;;;;;;3.60;2.50;;;;;;;13.20;43.78;98807.25;108098;1253;71660;-67
2023/03/10 02:43:29;;;;;;;3.60;2.70;;;;;;;13.32;43.53;98805.51;108129;1254;62391;-65
2023/03/10 02:46:04;;;;;;;3.90;2.70;;;;;;;13.72;42.71;98812.64;108253;1254;60309;-66
2023/03/10 02:48:35;;;;;;;3.90;2.80;;;;;;;13.51;43.08;98813.87;108004;1253;72692;-66
2023/03/10 02:51:08;;;;;;;3.50;2.30;;;;;;;13.69;42.58;98815.14;108091;1253;69390;-66
2023/03/10 02:53:37;;;;;;;3.50;2.30;;;;;;;13.22;42.96;98819.09;108074;1254;73613;-66
2023/03/10 02:56:05;;;;;;;5.10;2.60;;;;;;;13.35;42.64;98816.23;107949;1253;61480;-66
2023/03/10 02:58:36;;;;;;;4.10;2.70;;;;;;;13.24;42.62;98821.94;108069;1254;61528;-67
2023/03/10 03:01:09;;;;;;;2.40;2.10;;;;;;;13.16;42.67;98823.53;108136;1253;75007;-66
2023/03/10 03:03:40;;;;;;;2.80;2.30;;;;;;;13.14;42.61;98827.17;108180;1253;70549;-66
2023/03/10 03:06:09;;;;;;;3.30;2.30;;;;;;;13.29;42.31;98828.63;108254;1256;73599;-66
2023/03/10 03:08:38;;;;;;;3.90;2.60;;;;;;;13.11;42.69;98828.96;108254;1254;61055;-67
2023/03/10 03:11:07;;;;;;;3.90;2.50;;;;;;;12.84;43.18;98831.89;108248;1256;61069;-65
2023/03/10 03:13:36;;;;;;;3.50;2.30;;;;;;;12.85;43.00;98839.39;108210;1253;74078;-65
2023/03/10 03:16:07;;;;;;;5.10;2.70;;;;;;;12.70;43.29;98845.10;108223;1254;70594;-65
2023/03/10 03:18:37;;;;;;;3.20;2.70;;;;;;;12.64;43.49;98852.70;108177;1254;73828;-66
2023/03/10 03:21:09;;;;;;;3.90;2.40;;;;;;;12.43;43.68;98855.50;108292;1254;62304;-68
2023/03/10 03:23:39;;;;;;;4.00;2.30;;;;;;;12.41;43.79;98861.57;108206;1254;61128;-65
2023/03/10 03:26:21;;;;;;;2.70;2.20;;;;;;;12.33;43.90;98870.39;108263;1256;73143;-65
2023/03/10 03:28:51;;;;;;;3.00;2.50;;;;;;;12.24;44.06;98869.41;108217;1254;69809;-66
2023/03/10 03:31:23;;;;;;;3.40;2.50;;;;;;;12.02;44.12;98863.41;108158;1257;72335;-68
2023/03/10 03:33:59;;;;;;;3.50;2.50;;;;;;;12.03;44.04;98868.29;108180;1254;62117;-65
2023/03/10 03:36:28;;;;;;;4.90;2.70;;;;;;;12.03;44.03;98873.20;108238;1252;60608;-67
2023/03/10 03:38:57;;;;;;;5.20;2.70;;;;;;;12.23;43.70;98879.31;108186;1254;73413;-65
2023/03/10 03:41:25;;;;;;;3.00;2.60;;;;;;;12.46;43.21;98885.23;108120;1254;70592;-66
2023/03/10 03:43:54;;;;;;;5.80;2.80;;;;;;;12.55;42.90;98887.11;108213;1254;71845;-65
2023/03/10 03:46:22;;;;;;;2.20;2.00;;;;;;;12.73;42.58;98894.24;108109;1253;60874;-65
2023/03/10 03:48:51;;;;;;;4.00;2.50;;;;;;;12.90;42.28;98904.02;108235;1254;60297;-65
2023/03/10 03:51:19;;;;;;;2.80;2.50;;;;;;;13.11;41.94;98898.91;108260;1254;73857;-65
2023/03/10 03:53:48;;;;;;;2.80;2.10;;;;;;;13.05;41.90;98909.02;108128;1254;71194;-67
2023/03/10 03:56:16;;;;;;;3.20;2.30;;;;;;;13.13;41.73;98913.73;108227;1254;72878;-67
2023/03/10 03:58:46;;;;;;;5.20;2.80;;;;;;;13.03;41.90;98914.27;108246;1254;62423;-66
2023/03/10 04:01:15;;;;;;;4.50;3.00;;;;;;;12.94;42.01;98916.61;108273;1254;60692;-67
2023/03/10 04:03:47;;;;;;;3.20;2.60;;;;;;;13.11;41.72;98919.17;108248;1256;75110;-67
2023/03/10 04:06:15;;;;;;;4.10;2.40;;;;;;;12.89;42.07;98926.10;108237;1254;69242;-67
2023/03/10 04:08:47;;;;;;;5.30;2.70;;;;;;;12.76;42.25;98931.50;108186;1256;73874;-67
2023/03/10 04:11:15;;;;;;;4.00;2.60;;;;;;;12.45;42.61;98936.52;108076;1254;61269;-63
2023/03/10 04:13:46;;;;;;;3.20;2.40;;;;;;;12.66;42.33;98942.73;108071;1254;61418;-67
2023/03/10 04:16:14;;;;;;;3.60;2.50;;;;;;;12.68;42.29;98950.04;108113;1254;74083;-67
2023/03/10 04:18:43;;;;;;;2.70;2.30;;;;;;;12.67;42.35;98955.58;108110;1257;69935;-65
2023/03/10 04:21:13;;;;;;;4.00;2.50;;;;;;;12.83;41.95;98956.27;108037;1258;73517;-66
2023/03/10 04:23:42;;;;;;;3.30;2.30;;;;;;;13.06;41.45;98957.23;108053;1254;61567;-65
2023/03/10 04:26:12;;;;;;;3.70;2.50;;;;;;;13.18;41.37;98952.77;108026;1259;60117;-67
2023/03/10 04:28:41;;;;;;;5.80;2.50;;;;;;;13.32;41.04;98953.27;108104;1258;75081;-65
2023/03/10 04:31:14;;;;;;;3.70;2.50;;;;;;;12.92;41.55;98955.34;108130;1259;69175;-65
2023/03/10 04:33:44;;;;;;;3.50;2.60;;;;;;;13.09;41.39;98964.26;107997;1259;72420;-67
2023/03/10 04:36:12;;;;;;;2.70;2.40;;;;;;;13.40;40.89;98967.66;108125;1259;61126;-65
2023/03/10 04:38:42;;;;;;;5.10;2.40;;;;;;;13.52;40.58;98968.98;108120;1254;60637;-66
2023/03/10 04:41:11;;;;;;;5.00;2.60;;;;;;;13.74;40.22;98971.38;108122;1254;74710;-65
2023/03/10 04:43:42;;;;;;;4.00;2.40;;;;;;;13.57;40.31;98972.37;108091;1254;71261;-65
2023/03/10 04:46:14;;;;;;;3.80;2.20;;;;;;;13.61;40.39;98976.17;108058;1256;72379;-65
2023/03/10 04:48:42;;;;;;;4.60;2.70;;;;;;;13.38;40.62;98980.34;108066;1254;62114;-64
2023/03/10 04:51:11;;;;;;;4.70;2.40;;;;;;;13.10;41.14;98982.49;108070;1259;60357;-66
2023/03/10 04:53:45;;;;;;;3.00;2.20;;;;;;;13.54;40.52;98988.84;108114;1254;74637;-66
2023/03/10 04:56:13;;;;;;;3.10;2.40;;;;;;;13.78;39.97;98991.79;108102;1254;71450;-67
2023/03/10 04:58:42;;;;;;;5.20;2.30;;;;;;;13.84;39.88;98992.05;108164;1257;73822;-65
2023/03/10 05:01:11;;;;;;;4.70;2.80;;;;;;;13.69;40.03;98996.46;108242;1254;62314;-65
2023/03/10 05:03:44;;;;;;;4.60;2.50;;;;;;;13.66;39.89;98999.66;108106;1253;60526;-66
2023/03/10 05:06:14;;;;;;;6.80;2.60;;;;;;;13.28;40.52;98999.12;108221;1254;74100;-65
2023/03/10 05:08:44;;;;;;;3.70;2.40;;;;;;;13.35;40.38;98998.18;108254;1256;70379;-66
2023/03/10 05:11:13;;;;;;;5.90;2.70;;;;;;;13.52;40.36;98995.30;108213;1254;72386;-66
2023/03/10 05:13:41;;;;;;;3.50;2.30;;;;;;;13.47;40.22;98996.70;108166;1254;61710;-66
2023/03/10 05:16:14;;;;;;;4.10;2.70;;;;;;;13.11;40.84;99007.65;108260;1255;60963;-67
2023/03/10 05:18:44;;;;;;;5.90;2.60;;;;;;;13.00;40.90;99002.20;108243;1254;72664;-67
2023/03/10 05:21:13;;;;;;;5.00;2.80;;;;;;;12.77;41.35;98999.42;108243;1254;70766;-65
2023/03/10 05:23:43;;;;;;;2.90;2.40;;;;;;;12.80;41.44;99000.98;108347;1254;71095;-67
2023/03/10 05:26:13;;;;;;;3.40;2.40;;;;;;;12.99;41.14;99004.23;108287;1253;62021;-66
2023/03/10 05:28:47;;;;;;;3.60;2.40;;;;;;;13.24;40.83;99014.08;108233;1254;60395;-66
2023/03/10 05:31:24;;;;;;;4.10;2.20;;;;;;;13.19;40.78;99012.41;108047;1254;73616;-66
2023/03/10 05:33:55;;;;;;;4.00;2.40;;;;;;;13.13;40.77;99018.23;108107;1257;71485;-66
2023/03/10 05:36:23;;;;;;;4.10;2.40;;;;;;;13.39;40.27;99022.94;108090;1260;72570;-66
2023/03/10 05:38:52;;;;;;;4.30;2.60;;;;;;;13.36;40.40;99025.62;108111;1254;61490;-67
2023/03/10 05:41:20;;;;;;;5.30;2.20;;;;;;;13.40;40.31;99025.20;108064;1259;61276;-66
2023/03/10 05:43:51;;;;;;;5.90;3.00;;;;;;;13.54;40.18;99033.26;108083;1259;73766;-67
2023/03/10 05:46:22;;;;;;;;;;;;;;;13.62;40.04;99039.07;108099;1254;71756;-70
2023/03/10 05:48:54;;;;;;;3.50;2.60;;;;;;;13.63;39.92;99039.52;107965;1260;73976;-66
2023/03/10 05:51:23;;;;;;;3.50;2.30;;;;;;;13.73;39.83;99046.42;108171;1254;60568;-65
2023/03/10 05:53:51;;;;;;;3.30;2.10;;;;;;;13.88;39.58;99047.17;108246;1254;61595;-66
2023/03/10 05:56:23;;;;;;;3.80;2.30;;;;;;;14.10;39.16;99053.10;108210;1254;73560;-66
2023/03/10 05:58:54;;;;;;;;;;;;;;;14.15;39.15;99056.30;108206;1254;71275;-66
2023/03/10 06:01:25;;;;;;;3.90;2.20;;;;;;;14.21;39.11;99064.89;108190;1255;73275;-66
2023/03/10 06:03:55;;;;;;;5.10;2.70;;;;;;;14.61;38.58;99070.20;108179;1254;62238;-66
2023/03/10 06:06:23;;;;;;;4.90;2.50;;;;;;;14.83;38.39;99074.68;108142;1256;60370;-64
2023/03/10 06:08:51;;;;;;;3.90;2.20;;;;;;;14.64;38.58;99073.59;108227;1256;74083;-67
2023/03/10 06:11:22;;;;;;;3.80;2.40;;;;;;;14.39;38.69;99082.69;108132;1254;70553;-68
2023/03/10 06:13:51;;;;;;;4.50;2.60;;;;;;;14.64;38.21;99081.00;108125;1254;73873;-65
2023/03/10 06:16:20;;;;;;;5.10;2.40;;;;;;;14.69;38.06;99076.91;108194;1257;60570;-67
2023/03/10 06:18:52;;;;;;;3.00;2.40;;;;;;;14.47;38.21;99082.16;108187;1256;61256;-67
2023/03/10 06:21:21;;;;;;;3.70;2.50;;;;;;;14.40;38.58;99084.91;108182;1254;74613;-67
2023/03/10 06:23:50;;;;;;;3.20;2.40;;;;;;;14.66;38.68;99091.27;108222;1254;71141;-67
2023/03/10 06:26:18;;;;;;;5.30;2.60;;;;;;;14.69;38.70;99097.22;108184;1253;73767;-66
2023/03/10 06:28:46;;;;;;;7.10;2.80;;;;;;;14.75;38.59;99101.06;108112;1257;62334;-66
2023/03/10 06:31:19;;;;;;;4.60;2.00;;;;;;;15.07;38.77;99104.05;108068;1253;60606;-67
2023/03/10 06:33:48;;;;;;;3.40;2.50;;;;;;;15.66;37.50;99099.09;108117;1254;74286;-67
2023/03/10 06:36:16;;;;;;;5.40;2.80;;;;;;;15.74;37.03;99091.75;108068;1258;71597;-66
2023/03/10 06:38:45;;;;;;;6.40;2.90;;;;;;;15.55;36.87;99093.67;108081;1254;74018;-67
2023/03/10 06:41:13;;;;;;;7.80;3.60;;;;;;;14.96;37.05;99094.42;108035;1254;61219;-67
2023/03/10 06:43:41;;;;;;;5.70;3.10;;;;;;;14.78;37.58;99099.23;108091;1253;61564;-66
2023/03/10 06:48:46;;;;;;;14.00;4.70;;;;;;;10.86;44.90;99108.98;104748;1292;600741;-69
2023/03/10 06:51:16;;;;;;;6.10;3.00;;;;;;;13.07;40.59;99103.92;107203;1267;59257;-67
2023/03/10 06:53:43;;;;;;;5.00;2.90;;;;;;;13.73;39.61;99102.84;107235;1266;61178;-68
2023/03/10 06:56:12;;;;;;;6.00;3.50;;;;;;;14.06;38.71;99103.98;107290;1269;72643;-67
2023/03/10 06:58:41;;;;;;;4.70;2.70;;;;;;;14.19;38.37;99102.46;107189;1267;70394;-68
2023/03/10 07:01:17;;;;;;;6.20;2.80;;;;;;;14.44;38.11;99104.76;107161;1264;151353;-68
2023/03/10 07:03:44;;;;;;;4.30;2.80;;;;;;;14.61;37.81;99095.64;107305;1268;62411;-67
2023/03/10 07:06:15;;;;;;;7.70;3.70;;;;;;;14.84;37.48;99095.11;107445;1262;61218;-68
2023/03/10 07:09:02;;;;;;;5.20;3.30;;;;;;;14.67;37.18;99107.42;107382;1267;74383;-67
2023/03/10 07:11:29;;;;;;;6.40;3.30;;;;;;;14.29;37.80;99100.54;107436;1267;70441;-67
2023/03/10 07:13:56;;;;;;;4.70;3.30;;;;;;;14.67;37.56;99101.46;107357;1268;74324;-67
2023/03/10 07:16:23;;;;;;;4.80;3.50;;;;;;;14.65;37.70;99101.61;107349;1266;61021;-67
2023/03/10 07:18:50;;;;;;;5.10;3.00;;;;;;;14.66;37.78;99105.39;107385;1268;61452;-68
2023/03/10 07:21:18;;;;;;;10.70;3.10;;;;;;;14.73;36.85;99099.09;107311;1266;74094;-67
2023/03/10 07:23:46;;;;;;;4.60;3.10;;;;;;;14.58;36.81;99094.09;107328;1268;69711;-67
2023/03/10 07:26:13;;;;;;;11.30;6.70;;;;;;;14.62;35.95;99091.17;107346;1268;73882;-69
2023/03/10 07:28:41;;;;;;;9.30;6.30;;;;;;;14.56;36.06;99090.69;107279;1269;61669;-68
2023/03/10 07:31:11;;;;;;;13.40;10.00;;;;;;;14.30;36.64;99090.39;107296;1266;60262;-67
2023/03/10 07:33:39;;;;;;;15.70;10.20;;;;;;;14.73;36.27;99097.49;107359;1267;74382;-66
2023/03/10 07:36:14;;;;;;;11.50;8.10;;;;;;;15.03;35.87;99105.57;107316;1266;71188;-67
2023/03/10 07:38:42;;;;;;;7.10;4.70;;;;;;;15.54;35.57;99109.31;107984;1254;73817;-66
2023/03/10 07:41:10;;;;;;;36.60;21.70;;;;;;;15.58;35.64;99116.48;108028;1254;62357;-67
2023/03/10 07:43:38;;;;;;;27.40;16.10;;;;;;;15.30;35.58;99125.93;108068;1254;59699;-67
2023/03/10 07:46:06;;;;;;;29.90;12.80;;;;;;;15.16;35.69;99133.67;108102;1254;73038;-66
2023/03/10 07:48:33;;;;;;;12.30;5.80;;;;;;;15.15;35.75;99144.70;108056;1254;71588;-68
2023/03/10 07:51:00;;;;;;;9.60;5.10;;;;;;;15.07;35.65;99145.13;108075;1254;73480;-68
2023/03/10 07:53:27;;;;;;;10.60;5.50;;;;;;;15.25;35.52;99149.65;108014;1254;59742;-66
2023/03/10 07:55:54;;;;;;;8.60;4.80;;;;;;;15.34;35.56;99161.57;108092;1254;59516;-67
2023/03/10 07:58:21;;;;;;;10.70;5.20;;;;;;;15.26;35.64;99174.16;108062;1254;73832;-67
2023/03/10 08:00:55;;;;;;;11.00;6.20;;;;;;;15.36;35.44;99174.14;108162;1260;70156;-66
2023/03/10 08:03:23;;;;;;;8.10;4.00;;;;;;;15.31;34.80;99170.96;108110;1256;71838;-67
2023/03/10 08:05:50;;;;;;;17.30;8.00;;;;;;;15.16;35.04;99176.45;108088;1256;61478;-68
2023/03/10 08:08:22;;;;;;;10.30;4.80;;;;;;;15.00;35.48;99182.20;108060;1254;60310;-68
2023/03/10 08:11:02;;;;;;;11.80;4.90;;;;;;;15.07;35.25;99177.62;108121;1254;73602;-68
2023/03/10 08:13:30;;;;;;;16.10;11.40;;;;;;;15.38;35.00;99169.59;108053;1254;71348;-67
2023/03/10 08:16:00;;;;;;;12.10;7.10;;;;;;;15.54;34.84;99166.98;108006;1254;72494;-66
2023/03/10 08:18:28;;;;;;;;;;;;;;;15.78;34.56;99165.27;108015;1258;60647;-67
2023/03/10 08:20:55;;;;;;;17.00;6.60;;;;;;;15.75;34.66;99168.36;108069;1255;60829;-67
2023/03/10 08:23:24;;;;;;;16.70;6.60;;;;;;;15.50;34.83;99173.52;108044;1254;73951;-67
2023/03/10 08:25:51;;;;;;;10.90;6.10;;;;;;;15.45;34.81;99172.45;107973;1254;71574;-65
2023/03/10 08:28:18;;;;;;;10.80;6.20;;;;;;;15.46;35.09;99177.52;107952;1259;73887;-67
2023/03/10 08:30:45;;;;;;;10.60;5.90;;;;;;;15.63;35.01;99173.40;107918;1254;62316;-66
2023/03/10 08:33:31;;;;;;;16.80;7.80;;;;;;;15.70;34.57;99160.53;108018;1254;61349;-66
2023/03/10 08:36:10;;;;;;;14.30;5.80;;;;;;;15.65;34.33;99163.94;108054;1254;72917;-66
2023/03/10 08:38:39;;;;;;;11.30;5.70;;;;;;;15.66;34.66;99175.38;108057;1254;70932;-66
2023/03/10 08:41:27;;;;;;;12.80;7.30;;;;;;;15.74;34.65;99170.36;108008;1254;73546;-67
2023/03/10 08:43:55;;;;;;;11.60;6.40;;;;;;;15.77;34.72;99173.54;108020;1254;61372;-67
2023/03/10 08:46:23;;;;;;;41.80;14.20;;;;;;;15.98;34.49;99158.64;108075;1253;59658;-67
2023/03/10 08:48:50;;;;;;;36.40;11.30;;;;;;;15.98;34.50;99166.82;108069;1254;71899;-65
2023/03/10 08:51:17;;;;;;;18.60;7.40;;;;;;;16.30;33.64;99159.43;107948;1254;71005;-68
2023/03/10 08:53:45;;;;;;;16.30;7.10;;;;;;;16.41;32.87;99142.12;108062;1254;73564;-66
2023/03/10 08:56:12;;;;;;;16.90;7.10;;;;;;;16.39;32.68;99144.40;108066;1254;60029;-66
2023/03/10 08:58:40;;;;;;;13.20;6.70;;;;;;;16.18;33.26;99149.57;108046;1254;60183;-67
2023/03/10 09:01:10;;;;;;;13.50;7.30;;;;;;;16.18;33.41;99144.30;108006;1254;73286;-67
2023/03/10 09:03:38;;;;;;;12.90;6.10;;;;;;;16.05;33.72;99131.22;108027;1254;71561;-67
2023/03/10 09:06:05;;;;;;;11.00;5.90;;;;;;;16.02;33.45;99137.61;108004;1255;72465;-67
2023/03/10 09:08:35;;;;;;;42.70;16.20;;;;;;;16.01;33.42;99144.64;108064;1254;60373;-67
2023/03/10 09:11:02;;;;;;;24.80;8.30;;;;;;;16.10;33.78;99151.03;108050;1254;61779;-67
2023/03/10 09:13:30;;;;;;;25.10;10.10;;;;;;;16.40;33.09;99158.84;108029;1254;74247;-68
2023/03/10 09:15:58;;;;;;;23.60;9.10;;;;;;;16.08;33.57;99163.77;108050;1254;71116;-67
2023/03/10 09:18:27;;;;;;;12.90;7.80;;;;;;;16.60;33.44;99171.00;107982;1254;74041;-67
2023/03/10 09:20:54;;;;;;;21.40;8.30;;;;;;;16.27;33.09;99169.96;108035;1254;61078;-66
2023/03/10 09:23:21;;;;;;;15.60;7.10;;;;;;;16.32;33.21;99161.58;108048;1254;61571;-66
2023/03/10 09:25:48;;;;;;;14.60;6.90;;;;;;;16.69;32.59;99152.94;108053;1254;73889;-68
2023/03/10 09:28:14;;;;;;;17.50;10.10;;;;;;;16.83;32.50;99149.86;108057;1254;71491;-67
2023/03/10 09:30:45;;;;;;;11.30;5.50;;;;;;;16.63;32.47;99143.97;108021;1257;72199;-66
2023/03/10 09:33:15;;;;;;;13.90;7.20;;;;;;;16.56;32.58;99137.94;108050;1254;62059;-67
2023/03/10 09:35:42;;;;;;;14.60;6.30;;;;;;;16.53;32.50;99140.14;108101;1254;59782;-66
2023/03/10 09:38:20;;;;;;;10.80;5.60;;;;;;;16.58;32.34;99143.79;108087;1254;72402;-66
2023/03/10 09:41:09;;;;;;;10.10;4.80;;;;;;;16.46;32.76;99145.31;108070;1254;70802;-65
2023/03/10 09:43:41;;;;;;;8.70;4.20;;;;;;;16.60;32.74;99147.20;108161;1257;72930;-65
2023/03/10 09:46:14;;;;;;;10.40;4.60;;;;;;;17.01;32.33;99150.25;108346;1254;60735;-68
2023/03/10 09:48:56;;;;;;;11.90;6.50;;;;;;;17.31;32.48;99145.21;108026;1254;59709;-66
2023/03/10 09:51:26;;;;;;;10.00;4.20;;;;;;;17.44;31.86;99141.11;108089;1254;73349;-67
2023/03/10 09:54:06;;;;;;;11.30;5.40;;;;;;;17.51;31.34;99145.70;108073;1254;70673;-67
2023/03/10 09:56:34;;;;;;;7.30;4.50;;;;;;;17.50;31.39;99150.03;108068;1254;72032;-66
2023/03/10 09:59:10;;;;;;;6.50;4.80;;;;;;;17.34;31.22;99159.65;108047;1254;60866;-68
2023/03/10 10:01:37;;;;;;;13.10;5.10;;;;;;;17.21;31.49;99171.05;108089;1254;61618;-68
2023/03/10 10:04:35;;;;;;;12.50;5.90;;;;;;;17.30;31.41;99170.11;108136;1254;71742;-68
2023/03/10 10:07:04;;;;;;;10.90;5.50;;;;;;;17.24;31.71;99163.16;108097;1254;71343;-69
2023/03/10 10:09:42;;;;;;;9.70;5.40;;;;;;;17.22;31.67;99150.88;108094;1258;72484;-66
2023/03/10 10:12:15;;;;;;;11.50;5.50;;;;;;;17.48;31.47;99134.73;108066;1254;61233;-66
2023/03/10 10:14:44;;;;;;;8.40;5.50;;;;;;;17.62;31.08;99134.30;108039;1254;59567;-67
2023/03/10 10:17:44;;;;;;;9.70;4.80;;;;;;;17.47;31.10;99125.48;108040;1254;73313;-67
2023/03/10 10:20:23;;;;;;;6.10;4.00;;;;;;;17.60;30.89;99109.66;108095;1254;71728;-66
2023/03/10 10:22:51;;;;;;;7.30;4.30;;;;;;;16.70;31.64;99088.17;108065;1254;72476;-67
2023/03/10 10:25:19;;;;;;;6.70;4.50;;;;;;;17.23;31.31;99088.69;108049;1254;60688;-67
2023/03/10 10:27:51;;;;;;;7.20;4.00;;;;;;;16.62;31.84;99098.71;108059;1254;60336;-66
2023/03/10 10:30:33;;;;;;;5.70;3.60;;;;;;;16.49;32.00;99105.92;108052;1254;72005;-67
2023/03/10 10:33:07;;;;;;;6.60;3.90;;;;;;;16.52;32.17;99108.31;108037;1254;70392;-66
2023/03/10 10:35:43;;;;;;;6.00;3.10;;;;;;;16.61;32.37;99113.08;107995;1254;72534;-68
2023/03/10 10:38:12;;;;;;;6.20;4.20;;;;;;;16.66;32.47;99124.09;108125;1255;59533;-67
2023/03/10 10:40:50;;;;;;;4.80;3.60;;;;;;;16.63;32.33;99131.73;108106;1254;60291;-67
2023/03/10 10:43:18;;;;;;;5.00;3.40;;;;;;;16.33;32.99;99136.52;108105;1254;74256;-68
2023/03/10 10:45:54;;;;;;;4.60;3.50;;;;;;;16.49;32.83;99139.90;108074;1254;71444;-67
2023/03/10 10:49:12;;;;;;;7.50;3.70;;;;;;;16.82;32.48;99147.84;107941;1254;70854;-69
2023/03/10 10:51:41;;;;;;;6.00;3.50;;;;;;;16.48;32.94;99143.59;107753;1259;61128;-67
2023/03/10 10:54:27;;;;;;;9.80;4.10;;;;;;;16.27;33.42;99145.55;108067;1254;60674;-67
2023/03/10 10:56:57;;;;;;;5.10;3.60;;;;;;;16.66;32.88;99139.64;108046;1254;72347;-68
2023/03/10 10:59:29;;;;;;;4.70;3.10;;;;;;;16.65;32.83;99130.89;108165;1254;70423;-67
2023/03/10 11:02:15;;;;;;;5.50;3.40;;;;;;;16.11;33.50;99124.54;108091;1254;73407;-67
2023/03/10 11:04:43;;;;;;;9.20;3.90;;;;;;;16.12;33.80;99118.67;107917;1253;62320;-67
2023/03/10 11:07:18;;;;;;;6.00;4.30;;;;;;;16.31;33.46;99111.33;108068;1254;60430;-67
2023/03/10 11:09:47;;;;;;;6.30;4.10;;;;;;;16.04;33.66;99103.65;107911;1254;73386;-66
2023/03/10 11:12:26;;;;;;;5.10;3.50;;;;;;;16.11;33.67;99103.50;107911;1254;71410;-67
2023/03/10 11:15:01;;;;;;;7.30;4.10;;;;;;;15.69;34.43;99108.45;107891;1254;73640;-67
2023/03/10 11:17:28;;;;;;;7.60;4.10;;;;;;;16.33;33.87;99107.66;108035;1253;62309;-67
2023/03/10 11:19:59;;;;;;;6.00;3.80;;;;;;;16.64;33.42;99104.60;108035;1254;60428;-67
2023/03/10 11:22:39;;;;;;;6.90;4.20;;;;;;;16.64;33.57;99109.19;108054;1254;74938;-67
2023/03/10 11:25:24;;;;;;;8.80;4.30;;;;;;;16.39;33.91;99115.31;107975;1254;69447;-66
2023/03/10 11:28:21;;;;;;;7.70;4.00;;;;;;;16.26;34.42;99116.35;108050;1254;74013;-67
2023/03/10 11:30:56;;;;;;;5.90;3.90;;;;;;;16.17;34.27;99120.05;108016;1254;61366;-66
2023/03/10 11:33:37;;;;;;;6.00;3.70;;;;;;;16.31;34.20;99122.17;108069;1253;60553;-67
2023/03/10 11:36:14;;;;;;;5.00;3.80;;;;;;;16.38;34.01;99116.46;108053;1257;74042;-67
2023/03/10 11:38:45;;;;;;;6.20;3.90;;;;;;;16.55;33.78;99111.83;108088;1254;71490;-67
2023/03/10 11:41:15;;;;;;;4.70;3.80;;;;;;;16.43;34.09;99107.23;108099;1254;72785;-64
2023/03/10 11:43:53;;;;;;;9.00;4.30;;;;;;;16.55;33.79;99106.09;108101;1254;60965;-65
2023/03/10 11:46:31;;;;;;;6.30;4.70;;;;;;;16.64;33.63;99095.34;108009;1254;60328;-67